sensor_id;sensor_type;location;lat;lon;timestamp;P1;durP1;ratioP1;P2;durP2;ratioP2
22024;SDS011;11176;51.448;6.650;2023-02-13T00:00:16;15.07;;;9.27;;
22024;SDS011;11176;51.448;6.650;2023-02-13T00:02:45;12.52;;;8.23;;
22024;SDS011;11176;51.448;6.650;2023-02-13T00:05:12;12.73;;;8.45;;
22024;SDS011;11176;51.448;6.650;2023-02-13T00:07:38;13.27;;;8.98;;
22024;SDS011;11176;51.448;6.650;2023-02-13T00:10:05;12.20;;;8.00;;
22024;SDS011;11176;51.448;6.650;2023-02-13T00:12:32;11.90;;;8.00;;
22024;SDS011;11176;51.448;6.650;2023-02-13T00:14:59;11.32;;;7.63;;
22024;SDS011;11176;51.448;6.650;2023-02-13T00:17:25;12.35;;;8.02;;
22024;SDS011;11176;51.448;6.650;2023-02-13T00:19:52;12.52;;;8.07;;
22024;SDS011;11176;51.448;6.650;2023-02-13T00:22:19;10.95;;;7.18;;
22024;SDS011;11176;51.448;6.650;2023-02-13T00:24:45;10.00;;;7.00;;
22024;SDS011;11176;51.448;6.650;2023-02-13T00:27:12;10.23;;;6.90;;
22024;SDS011;11176;51.448;6.650;2023-02-13T00:29:38;12.48;;;7.18;;
22024;SDS011;11176;51.448;6.650;2023-02-13T00:32:05;10.55;;;6.97;;
22024;SDS011;11176;51.448;6.650;2023-02-13T00:34:31;9.90;;;6.68;;
22024;SDS011;11176;51.448;6.650;2023-02-13T00:36:59;10.90;;;7.30;;
22024;SDS011;11176;51.448;6.650;2023-02-13T00:39:26;11.18;;;7.22;;
22024;SDS011;11176;51.448;6.650;2023-02-13T00:41:52;10.52;;;7.00;;
22024;SDS011;11176;51.448;6.650;2023-02-13T00:44:19;11.88;;;7.63;;
22024;SDS011;11176;51.448;6.650;2023-02-13T00:46:45;10.77;;;7.18;;
22024;SDS011;11176;51.448;6.650;2023-02-13T00:49:12;12.45;;;8.02;;
22024;SDS011;11176;51.448;6.650;2023-02-13T00:51:38;12.68;;;7.80;;
22024;SDS011;11176;51.448;6.650;2023-02-13T00:54:05;10.55;;;7.13;;
22024;SDS011;11176;51.448;6.650;2023-02-13T00:56:31;11.18;;;7.38;;
22024;SDS011;11176;51.448;6.650;2023-02-13T00:58:58;13.05;;;7.53;;
22024;SDS011;11176;51.448;6.650;2023-02-13T01:01:24;11.80;;;7.78;;
22024;SDS011;11176;51.448;6.650;2023-02-13T01:03:51;11.63;;;7.57;;
22024;SDS011;11176;51.448;6.650;2023-02-13T01:06:19;13.48;;;7.97;;
22024;SDS011;11176;51.448;6.650;2023-02-13T01:08:46;10.27;;;6.85;;
22024;SDS011;11176;51.448;6.650;2023-02-13T01:11:14;12.63;;;7.40;;
22024;SDS011;11176;51.448;6.650;2023-02-13T01:13:42;10.45;;;7.20;;
22024;SDS011;11176;51.448;6.650;2023-02-13T01:16:09;11.05;;;6.90;;
22024;SDS011;11176;51.448;6.650;2023-02-13T01:18:35;9.88;;;6.50;;
22024;SDS011;11176;51.448;6.650;2023-02-13T01:21:06;10.32;;;6.90;;
22024;SDS011;11176;51.448;6.650;2023-02-13T01:23:35;10.70;;;6.47;;
22024;SDS011;11176;51.448;6.650;2023-02-13T01:26:03;10.00;;;6.38;;
22024;SDS011;11176;51.448;6.650;2023-02-13T01:28:32;10.90;;;6.80;;
22024;SDS011;11176;51.448;6.650;2023-02-13T01:30:59;10.45;;;7.22;;
22024;SDS011;11176;51.448;6.650;2023-02-13T01:33:27;11.30;;;7.13;;
22024;SDS011;11176;51.448;6.650;2023-02-13T01:35:54;11.90;;;7.43;;
22024;SDS011;11176;51.448;6.650;2023-02-13T01:38:21;11.15;;;7.45;;
22024;SDS011;11176;51.448;6.650;2023-02-13T01:40:48;13.02;;;8.05;;
22024;SDS011;11176;51.448;6.650;2023-02-13T01:43:17;12.77;;;8.07;;
22024;SDS011;11176;51.448;6.650;2023-02-13T01:45:44;13.57;;;7.97;;
22024;SDS011;11176;51.448;6.650;2023-02-13T01:48:17;11.88;;;8.20;;
22024;SDS011;11176;51.448;6.650;2023-02-13T01:50:58;13.52;;;7.45;;
22024;SDS011;11176;51.448;6.650;2023-02-13T01:53:30;11.40;;;7.10;;
22024;SDS011;11176;51.448;6.650;2023-02-13T01:56:14;11.18;;;7.30;;
22024;SDS011;11176;51.448;6.650;2023-02-13T01:58:50;14.65;;;8.43;;
22024;SDS011;11176;51.448;6.650;2023-02-13T02:01:19;13.05;;;8.45;;
22024;SDS011;11176;51.448;6.650;2023-02-13T02:03:51;13.65;;;8.45;;
22024;SDS011;11176;51.448;6.650;2023-02-13T02:06:24;12.18;;;8.07;;
22024;SDS011;11176;51.448;6.650;2023-02-13T02:08:54;13.30;;;8.73;;
22024;SDS011;11176;51.448;6.650;2023-02-13T02:11:49;13.07;;;8.35;;
22024;SDS011;11176;51.448;6.650;2023-02-13T02:14:18;13.38;;;8.90;;
22024;SDS011;11176;51.448;6.650;2023-02-13T02:16:45;13.23;;;9.27;;
22024;SDS011;11176;51.448;6.650;2023-02-13T02:19:14;14.05;;;8.98;;
22024;SDS011;11176;51.448;6.650;2023-02-13T02:22:00;14.73;;;10.00;;
22024;SDS011;11176;51.448;6.650;2023-02-13T02:24:59;14.45;;;9.27;;
22024;SDS011;11176;51.448;6.650;2023-02-13T02:38:44;14.25;;;9.27;;
22024;SDS011;11176;51.448;6.650;2023-02-13T02:41:33;15.18;;;9.35;;
22024;SDS011;11176;51.448;6.650;2023-02-13T02:47:19;13.52;;;9.20;;
22024;SDS011;11176;51.448;6.650;2023-02-13T02:50:24;14.60;;;9.43;;
22024;SDS011;11176;51.448;6.650;2023-02-13T02:53:07;14.07;;;9.40;;
22024;SDS011;11176;51.448;6.650;2023-02-13T02:58:21;14.43;;;9.50;;
22024;SDS011;11176;51.448;6.650;2023-02-13T03:01:11;15.68;;;9.98;;
22024;SDS011;11176;51.448;6.650;2023-02-13T03:03:59;14.55;;;10.02;;
22024;SDS011;11176;51.448;6.650;2023-02-13T03:09:30;15.05;;;9.43;;
22024;SDS011;11176;51.448;6.650;2023-02-13T03:12:20;14.43;;;9.70;;
22024;SDS011;11176;51.448;6.650;2023-02-13T03:15:07;16.38;;;10.60;;
22024;SDS011;11176;51.448;6.650;2023-02-13T03:17:34;15.25;;;9.80;;
22024;SDS011;11176;51.448;6.650;2023-02-13T03:20:27;14.00;;;9.68;;
22024;SDS011;11176;51.448;6.650;2023-02-13T03:29:03;13.57;;;8.90;;
22024;SDS011;11176;51.448;6.650;2023-02-13T03:31:53;12.98;;;9.00;;
22024;SDS011;11176;51.448;6.650;2023-02-13T03:34:28;14.13;;;8.82;;
22024;SDS011;11176;51.448;6.650;2023-02-13T03:37:17;13.18;;;8.63;;
22024;SDS011;11176;51.448;6.650;2023-02-13T03:40:15;13.88;;;8.93;;
22024;SDS011;11176;51.448;6.650;2023-02-13T03:42:52;13.27;;;8.48;;
22024;SDS011;11176;51.448;6.650;2023-02-13T03:45:27;12.52;;;8.20;;
22024;SDS011;11176;51.448;6.650;2023-02-13T03:48:17;13.68;;;8.98;;
22024;SDS011;11176;51.448;6.650;2023-02-13T03:51:07;12.95;;;8.55;;
22024;SDS011;11176;51.448;6.650;2023-02-13T03:53:37;12.77;;;8.40;;
22024;SDS011;11176;51.448;6.650;2023-02-13T03:56:07;13.02;;;8.00;;
22024;SDS011;11176;51.448;6.650;2023-02-13T03:58:57;11.98;;;7.97;;
22024;SDS011;11176;51.448;6.650;2023-02-13T04:01:45;12.75;;;8.52;;
22024;SDS011;11176;51.448;6.650;2023-02-13T04:07:00;13.00;;;8.80;;
22024;SDS011;11176;51.448;6.650;2023-02-13T04:09:30;12.18;;;7.70;;
22024;SDS011;11176;51.448;6.650;2023-02-13T04:12:04;11.55;;;7.93;;
22024;SDS011;11176;51.448;6.650;2023-02-13T04:14:47;14.32;;;8.43;;
22024;SDS011;11176;51.448;6.650;2023-02-13T04:17:40;13.27;;;8.10;;
22024;SDS011;11176;51.448;6.650;2023-02-13T04:20:08;11.35;;;7.45;;
22024;SDS011;11176;51.448;6.650;2023-02-13T04:22:43;11.65;;;7.60;;
22024;SDS011;11176;51.448;6.650;2023-02-13T04:25:11;13.18;;;8.07;;
22024;SDS011;11176;51.448;6.650;2023-02-13T04:27:40;11.18;;;7.90;;
22024;SDS011;11176;51.448;6.650;2023-02-13T04:30:07;12.57;;;7.97;;
22024;SDS011;11176;51.448;6.650;2023-02-13T04:32:34;12.85;;;8.25;;
22024;SDS011;11176;51.448;6.650;2023-02-13T04:35:00;10.85;;;7.50;;
22024;SDS011;11176;51.448;6.650;2023-02-13T04:37:27;12.50;;;7.80;;
22024;SDS011;11176;51.448;6.650;2023-02-13T04:39:53;11.93;;;7.78;;
22024;SDS011;11176;51.448;6.650;2023-02-13T04:42:20;11.75;;;7.80;;
22024;SDS011;11176;51.448;6.650;2023-02-13T04:44:46;12.20;;;7.70;;
22024;SDS011;11176;51.448;6.650;2023-02-13T04:47:13;11.95;;;8.23;;
22024;SDS011;11176;51.448;6.650;2023-02-13T04:49:39;12.48;;;8.73;;
22024;SDS011;11176;51.448;6.650;2023-02-13T04:52:05;12.07;;;8.18;;
22024;SDS011;11176;51.448;6.650;2023-02-13T04:54:32;14.02;;;9.48;;
22024;SDS011;11176;51.448;6.650;2023-02-13T04:56:58;13.27;;;8.98;;
22024;SDS011;11176;51.448;6.650;2023-02-13T04:59:25;12.35;;;8.48;;
22024;SDS011;11176;51.448;6.650;2023-02-13T05:01:51;13.20;;;8.52;;
22024;SDS011;11176;51.448;6.650;2023-02-13T05:04:19;13.43;;;8.55;;
22024;SDS011;11176;51.448;6.650;2023-02-13T05:06:45;12.13;;;8.15;;
22024;SDS011;11176;51.448;6.650;2023-02-13T05:09:12;12.93;;;8.77;;
22024;SDS011;11176;51.448;6.650;2023-02-13T05:11:38;13.82;;;8.93;;
22024;SDS011;11176;51.448;6.650;2023-02-13T05:14:05;13.75;;;9.32;;
22024;SDS011;11176;51.448;6.650;2023-02-13T05:16:31;13.38;;;9.40;;
22024;SDS011;11176;51.448;6.650;2023-02-13T05:18:58;17.17;;;9.35;;
22024;SDS011;11176;51.448;6.650;2023-02-13T05:21:25;14.35;;;9.13;;
22024;SDS011;11176;51.448;6.650;2023-02-13T05:24:10;14.82;;;9.70;;
22024;SDS011;11176;51.448;6.650;2023-02-13T05:26:36;12.77;;;9.15;;
22024;SDS011;11176;51.448;6.650;2023-02-13T05:29:03;16.08;;;10.52;;
22024;SDS011;11176;51.448;6.650;2023-02-13T05:31:45;14.07;;;9.57;;
22024;SDS011;11176;51.448;6.650;2023-02-13T05:34:12;15.07;;;10.00;;
22024;SDS011;11176;51.448;6.650;2023-02-13T05:36:39;15.23;;;10.43;;
22024;SDS011;11176;51.448;6.650;2023-02-13T05:39:05;14.95;;;10.45;;
22024;SDS011;11176;51.448;6.650;2023-02-13T05:41:32;13.00;;;9.40;;
22024;SDS011;11176;51.448;6.650;2023-02-13T05:43:58;13.23;;;9.52;;
22024;SDS011;11176;51.448;6.650;2023-02-13T05:46:25;14.35;;;9.60;;
22024;SDS011;11176;51.448;6.650;2023-02-13T05:48:52;13.82;;;9.57;;
22024;SDS011;11176;51.448;6.650;2023-02-13T05:51:19;13.75;;;9.43;;
22024;SDS011;11176;51.448;6.650;2023-02-13T05:53:46;13.88;;;9.55;;
22024;SDS011;11176;51.448;6.650;2023-02-13T05:56:12;14.65;;;9.70;;
22024;SDS011;11176;51.448;6.650;2023-02-13T05:58:38;13.85;;;9.45;;
22024;SDS011;11176;51.448;6.650;2023-02-13T06:01:05;14.07;;;9.63;;
22024;SDS011;11176;51.448;6.650;2023-02-13T06:03:31;14.75;;;9.48;;
22024;SDS011;11176;51.448;6.650;2023-02-13T06:05:58;16.42;;;10.07;;
22024;SDS011;11176;51.448;6.650;2023-02-13T06:08:25;14.15;;;9.75;;
22024;SDS011;11176;51.448;6.650;2023-02-13T06:10:51;14.73;;;10.10;;
22024;SDS011;11176;51.448;6.650;2023-02-13T06:13:18;15.10;;;10.35;;
22024;SDS011;11176;51.448;6.650;2023-02-13T06:15:44;16.30;;;10.65;;
22024;SDS011;11176;51.448;6.650;2023-02-13T06:18:11;16.08;;;11.13;;
22024;SDS011;11176;51.448;6.650;2023-02-13T06:20:37;16.52;;;10.18;;
22024;SDS011;11176;51.448;6.650;2023-02-13T06:23:04;15.30;;;10.48;;
22024;SDS011;11176;51.448;6.650;2023-02-13T06:25:30;15.65;;;10.65;;
22024;SDS011;11176;51.448;6.650;2023-02-13T06:27:57;20.30;;;11.15;;
22024;SDS011;11176;51.448;6.650;2023-02-13T06:30:23;14.55;;;10.00;;
22024;SDS011;11176;51.448;6.650;2023-02-13T06:32:50;16.45;;;11.02;;
22024;SDS011;11176;51.448;6.650;2023-02-13T06:35:16;16.35;;;11.30;;
22024;SDS011;11176;51.448;6.650;2023-02-13T06:37:43;16.58;;;10.77;;
22024;SDS011;11176;51.448;6.650;2023-02-13T06:40:10;16.50;;;11.63;;
22024;SDS011;11176;51.448;6.650;2023-02-13T06:42:38;18.40;;;12.13;;
22024;SDS011;11176;51.448;6.650;2023-02-13T06:45:05;17.15;;;11.63;;
22024;SDS011;11176;51.448;6.650;2023-02-13T06:47:32;18.80;;;12.32;;
22024;SDS011;11176;51.448;6.650;2023-02-13T06:49:58;18.60;;;12.35;;
22024;SDS011;11176;51.448;6.650;2023-02-13T06:52:25;18.48;;;12.80;;
22024;SDS011;11176;51.448;6.650;2023-02-13T06:54:51;19.17;;;12.05;;
22024;SDS011;11176;51.448;6.650;2023-02-13T06:57:18;18.73;;;12.48;;
22024;SDS011;11176;51.448;6.650;2023-02-13T06:59:44;19.95;;;12.65;;
22024;SDS011;11176;51.448;6.650;2023-02-13T07:02:11;17.85;;;12.43;;
22024;SDS011;11176;51.448;6.650;2023-02-13T07:04:38;20.50;;;12.95;;
22024;SDS011;11176;51.448;6.650;2023-02-13T07:07:04;17.85;;;11.93;;
22024;SDS011;11176;51.448;6.650;2023-02-13T07:09:31;19.77;;;12.23;;
22024;SDS011;11176;51.448;6.650;2023-02-13T07:12:00;17.35;;;12.23;;
22024;SDS011;11176;51.448;6.650;2023-02-13T07:14:28;17.75;;;12.40;;
22024;SDS011;11176;51.448;6.650;2023-02-13T07:16:54;20.13;;;12.57;;
22024;SDS011;11176;51.448;6.650;2023-02-13T07:19:21;17.25;;;12.07;;
22024;SDS011;11176;51.448;6.650;2023-02-13T07:21:47;18.80;;;12.65;;
22024;SDS011;11176;51.448;6.650;2023-02-13T07:24:14;18.52;;;12.75;;
22024;SDS011;11176;51.448;6.650;2023-02-13T07:26:40;19.95;;;12.80;;
22024;SDS011;11176;51.448;6.650;2023-02-13T07:29:07;18.08;;;12.00;;
22024;SDS011;11176;51.448;6.650;2023-02-13T07:31:37;18.83;;;12.60;;
22024;SDS011;11176;51.448;6.650;2023-02-13T07:34:04;18.38;;;12.52;;
22024;SDS011;11176;51.448;6.650;2023-02-13T07:36:31;20.13;;;13.13;;
22024;SDS011;11176;51.448;6.650;2023-02-13T07:38:58;19.95;;;13.00;;
22024;SDS011;11176;51.448;6.650;2023-02-13T07:41:24;20.65;;;13.35;;
22024;SDS011;11176;51.448;6.650;2023-02-13T07:43:52;21.30;;;13.45;;
22024;SDS011;11176;51.448;6.650;2023-02-13T07:46:19;15.95;;;11.48;;
22024;SDS011;11176;51.448;6.650;2023-02-13T07:48:45;18.75;;;12.20;;
22024;SDS011;11176;51.448;6.650;2023-02-13T07:51:12;19.25;;;12.80;;
22024;SDS011;11176;51.448;6.650;2023-02-13T07:53:39;19.10;;;12.82;;
22024;SDS011;11176;51.448;6.650;2023-02-13T07:56:05;19.85;;;13.45;;
22024;SDS011;11176;51.448;6.650;2023-02-13T07:58:33;20.15;;;13.55;;
22024;SDS011;11176;51.448;6.650;2023-02-13T08:01:05;19.35;;;13.15;;
22024;SDS011;11176;51.448;6.650;2023-02-13T08:03:36;22.50;;;13.73;;
22024;SDS011;11176;51.448;6.650;2023-02-13T08:06:03;19.73;;;12.55;;
22024;SDS011;11176;51.448;6.650;2023-02-13T08:08:31;20.88;;;12.85;;
22024;SDS011;11176;51.448;6.650;2023-02-13T08:11:01;20.50;;;14.00;;
22024;SDS011;11176;51.448;6.650;2023-02-13T08:13:56;21.33;;;14.15;;
22024;SDS011;11176;51.448;6.650;2023-02-13T08:16:22;19.90;;;14.15;;
22024;SDS011;11176;51.448;6.650;2023-02-13T08:18:49;20.77;;;14.73;;
22024;SDS011;11176;51.448;6.650;2023-02-13T08:21:15;20.67;;;13.68;;
22024;SDS011;11176;51.448;6.650;2023-02-13T08:23:42;20.88;;;14.02;;
22024;SDS011;11176;51.448;6.650;2023-02-13T08:26:08;20.33;;;13.32;;
22024;SDS011;11176;51.448;6.650;2023-02-13T08:28:36;18.02;;;13.23;;
22024;SDS011;11176;51.448;6.650;2023-02-13T08:31:08;21.23;;;14.30;;
22024;SDS011;11176;51.448;6.650;2023-02-13T08:33:38;19.88;;;13.82;;
22024;SDS011;11176;51.448;6.650;2023-02-13T08:36:06;23.75;;;14.50;;
22024;SDS011;11176;51.448;6.650;2023-02-13T08:38:33;20.65;;;13.90;;
22024;SDS011;11176;51.448;6.650;2023-02-13T08:41:00;18.48;;;13.05;;
22024;SDS011;11176;51.448;6.650;2023-02-13T08:43:26;22.27;;;14.93;;
22024;SDS011;11176;51.448;6.650;2023-02-13T08:45:52;21.38;;;14.73;;
22024;SDS011;11176;51.448;6.650;2023-02-13T08:48:19;22.95;;;14.60;;
22024;SDS011;11176;51.448;6.650;2023-02-13T08:50:45;20.73;;;14.00;;
22024;SDS011;11176;51.448;6.650;2023-02-13T08:53:12;20.23;;;13.88;;
22024;SDS011;11176;51.448;6.650;2023-02-13T08:55:38;20.77;;;13.90;;
22024;SDS011;11176;51.448;6.650;2023-02-13T08:58:04;18.98;;;13.18;;
22024;SDS011;11176;51.448;6.650;2023-02-13T09:00:31;19.50;;;13.52;;
22024;SDS011;11176;51.448;6.650;2023-02-13T09:03:01;19.85;;;13.68;;
22024;SDS011;11176;51.448;6.650;2023-02-13T09:05:28;17.08;;;12.75;;
22024;SDS011;11176;51.448;6.650;2023-02-13T09:08:00;20.05;;;12.55;;
22024;SDS011;11176;51.448;6.650;2023-02-13T09:10:29;19.38;;;12.77;;
22024;SDS011;11176;51.448;6.650;2023-02-13T09:12:57;17.92;;;12.43;;
22024;SDS011;11176;51.448;6.650;2023-02-13T09:15:23;17.33;;;11.98;;
22024;SDS011;11176;51.448;6.650;2023-02-13T09:17:50;17.92;;;12.20;;
22024;SDS011;11176;51.448;6.650;2023-02-13T09:20:16;19.05;;;12.70;;
22024;SDS011;11176;51.448;6.650;2023-02-13T09:22:43;20.42;;;13.32;;
22024;SDS011;11176;51.448;6.650;2023-02-13T09:25:09;20.60;;;13.20;;
22024;SDS011;11176;51.448;6.650;2023-02-13T09:27:36;20.35;;;13.15;;
22024;SDS011;11176;51.448;6.650;2023-02-13T09:30:13;17.90;;;12.18;;
22024;SDS011;11176;51.448;6.650;2023-02-13T09:32:49;16.83;;;11.30;;
22024;SDS011;11176;51.448;6.650;2023-02-13T09:35:17;16.10;;;10.88;;
22024;SDS011;11176;51.448;6.650;2023-02-13T09:37:44;16.63;;;11.15;;
22024;SDS011;11176;51.448;6.650;2023-02-13T09:40:22;18.02;;;11.45;;
22024;SDS011;11176;51.448;6.650;2023-02-13T09:42:55;16.27;;;10.93;;
22024;SDS011;11176;51.448;6.650;2023-02-13T09:45:32;19.02;;;12.45;;
22024;SDS011;11176;51.448;6.650;2023-02-13T09:47:59;20.95;;;12.60;;
22024;SDS011;11176;51.448;6.650;2023-02-13T09:50:30;20.45;;;13.23;;
22024;SDS011;11176;51.448;6.650;2023-02-13T09:52:58;24.38;;;15.80;;
22024;SDS011;11176;51.448;6.650;2023-02-13T09:55:29;21.30;;;13.60;;
22024;SDS011;11176;51.448;6.650;2023-02-13T10:00:58;16.70;;;11.18;;
22024;SDS011;11176;51.448;6.650;2023-02-13T10:09:25;19.52;;;11.73;;
22024;SDS011;11176;51.448;6.650;2023-02-13T10:12:06;19.10;;;12.30;;
22024;SDS011;11176;51.448;6.650;2023-02-13T10:14:44;17.85;;;11.65;;
22024;SDS011;11176;51.448;6.650;2023-02-13T10:17:27;17.92;;;11.48;;
22024;SDS011;11176;51.448;6.650;2023-02-13T10:20:04;21.00;;;12.35;;
22024;SDS011;11176;51.448;6.650;2023-02-13T10:22:41;16.75;;;11.02;;
22024;SDS011;11176;51.448;6.650;2023-02-13T10:25:20;19.35;;;11.77;;
22024;SDS011;11176;51.448;6.650;2023-02-13T10:27:54;17.38;;;10.52;;
22024;SDS011;11176;51.448;6.650;2023-02-13T10:30:27;16.05;;;11.18;;
22024;SDS011;11176;51.448;6.650;2023-02-13T10:32:59;18.00;;;11.75;;
22024;SDS011;11176;51.448;6.650;2023-02-13T10:36:02;17.38;;;11.40;;
22024;SDS011;11176;51.448;6.650;2023-02-13T10:52:16;17.77;;;11.65;;
22024;SDS011;11176;51.448;6.650;2023-02-13T10:55:18;15.90;;;10.93;;
22024;SDS011;11176;51.448;6.650;2023-02-13T11:00:26;13.68;;;9.35;;
22024;SDS011;11176;51.448;6.650;2023-02-13T11:03:00;16.23;;;10.35;;
22024;SDS011;11176;51.448;6.650;2023-02-13T11:05:35;14.90;;;10.32;;
22024;SDS011;11176;51.448;6.650;2023-02-13T11:08:09;15.13;;;9.45;;
22024;SDS011;11176;51.448;6.650;2023-02-13T11:10:54;14.25;;;9.70;;
22024;SDS011;11176;51.448;6.650;2023-02-13T11:13:22;12.55;;;8.63;;
22024;SDS011;11176;51.448;6.650;2023-02-13T11:15:57;14.90;;;9.90;;
22024;SDS011;11176;51.448;6.650;2023-02-13T11:18:28;12.02;;;8.82;;
22024;SDS011;11176;51.448;6.650;2023-02-13T11:21:00;15.00;;;9.30;;
22024;SDS011;11176;51.448;6.650;2023-02-13T11:23:49;11.13;;;8.25;;
22024;SDS011;11176;51.448;6.650;2023-02-13T11:28:52;13.02;;;8.85;;
22024;SDS011;11176;51.448;6.650;2023-02-13T11:31:31;12.10;;;7.72;;
22024;SDS011;11176;51.448;6.650;2023-02-13T11:34:17;13.60;;;8.20;;
22024;SDS011;11176;51.448;6.650;2023-02-13T11:36:43;12.57;;;8.30;;
22024;SDS011;11176;51.448;6.650;2023-02-13T11:39:20;12.45;;;7.70;;
22024;SDS011;11176;51.448;6.650;2023-02-13T11:41:48;10.77;;;7.05;;
22024;SDS011;11176;51.448;6.650;2023-02-13T11:46:51;10.15;;;7.45;;
22024;SDS011;11176;51.448;6.650;2023-02-13T11:49:23;10.93;;;7.70;;
22024;SDS011;11176;51.448;6.650;2023-02-13T11:51:58;10.63;;;7.15;;
22024;SDS011;11176;51.448;6.650;2023-02-13T11:57:18;13.50;;;8.50;;
22024;SDS011;11176;51.448;6.650;2023-02-13T12:03:47;10.17;;;6.87;;
22024;SDS011;11176;51.448;6.650;2023-02-13T12:06:01;10.98;;;6.63;;
22024;SDS011;11176;51.448;6.650;2023-02-13T12:08:34;11.45;;;6.78;;
22024;SDS011;11176;51.448;6.650;2023-02-13T12:11:23;12.20;;;7.82;;
22024;SDS011;11176;51.448;6.650;2023-02-13T12:14:01;11.68;;;7.88;;
22024;SDS011;11176;51.448;6.650;2023-02-13T12:16:37;10.50;;;6.72;;
22024;SDS011;11176;51.448;6.650;2023-02-13T12:19:12;9.48;;;6.20;;
22024;SDS011;11176;51.448;6.650;2023-02-13T12:24:54;8.80;;;5.80;;
22024;SDS011;11176;51.448;6.650;2023-02-13T12:27:41;7.75;;;5.32;;
22024;SDS011;11176;51.448;6.650;2023-02-13T12:33:12;7.95;;;5.38;;
22024;SDS011;11176;51.448;6.650;2023-02-13T12:42:04;7.28;;;4.78;;
22024;SDS011;11176;51.448;6.650;2023-02-13T12:47:18;11.25;;;6.40;;
22024;SDS011;11176;51.448;6.650;2023-02-13T12:49:56;9.23;;;6.07;;
22024;SDS011;11176;51.448;6.650;2023-02-13T13:06:06;8.88;;;5.55;;
22024;SDS011;11176;51.448;6.650;2023-02-13T13:14:28;6.80;;;4.25;;
22024;SDS011;11176;51.448;6.650;2023-02-13T13:22:37;6.25;;;4.00;;
22024;SDS011;11176;51.448;6.650;2023-02-13T13:27:47;5.32;;;3.70;;
22024;SDS011;11176;51.448;6.650;2023-02-13T13:30:19;6.82;;;4.43;;
22024;SDS011;11176;51.448;6.650;2023-02-13T13:32:49;6.65;;;3.92;;
22024;SDS011;11176;51.448;6.650;2023-02-13T13:35:21;4.90;;;3.45;;
22024;SDS011;11176;51.448;6.650;2023-02-13T13:40:33;6.63;;;4.10;;
22024;SDS011;11176;51.448;6.650;2023-02-13T13:43:14;5.68;;;3.25;;
22024;SDS011;11176;51.448;6.650;2023-02-13T13:46:01;7.68;;;3.95;;
22024;SDS011;11176;51.448;6.650;2023-02-13T13:48:37;6.03;;;3.63;;
22024;SDS011;11176;51.448;6.650;2023-02-13T13:51:18;7.20;;;3.50;;
22024;SDS011;11176;51.448;6.650;2023-02-13T13:54:16;6.25;;;3.70;;
22024;SDS011;11176;51.448;6.650;2023-02-13T13:59:56;5.78;;;3.90;;
22024;SDS011;11176;51.448;6.650;2023-02-13T14:07:44;5.75;;;3.50;;
22024;SDS011;11176;51.448;6.650;2023-02-13T14:18:00;8.48;;;3.40;;
22024;SDS011;11176;51.448;6.650;2023-02-13T14:20:34;7.78;;;3.75;;
22024;SDS011;11176;51.448;6.650;2023-02-13T14:23:46;6.40;;;3.75;;
22024;SDS011;11176;51.448;6.650;2023-02-13T14:29:11;7.57;;;3.72;;
22024;SDS011;11176;51.448;6.650;2023-02-13T14:31:41;6.65;;;3.88;;
22024;SDS011;11176;51.448;6.650;2023-02-13T14:34:18;5.57;;;3.55;;
22024;SDS011;11176;51.448;6.650;2023-02-13T14:37:04;7.10;;;3.90;;
22024;SDS011;11176;51.448;6.650;2023-02-13T14:42:43;8.52;;;4.30;;
22024;SDS011;11176;51.448;6.650;2023-02-13T14:45:17;8.98;;;4.90;;
22024;SDS011;11176;51.448;6.650;2023-02-13T14:47:48;7.60;;;4.57;;
22024;SDS011;11176;51.448;6.650;2023-02-13T14:50:31;7.25;;;4.65;;
22024;SDS011;11176;51.448;6.650;2023-02-13T14:53:08;8.77;;;4.50;;
22024;SDS011;11176;51.448;6.650;2023-02-13T14:55:42;9.25;;;5.13;;
22024;SDS011;11176;51.448;6.650;2023-02-13T15:00:54;7.45;;;4.95;;
22024;SDS011;11176;51.448;6.650;2023-02-13T15:03:35;8.18;;;4.50;;
22024;SDS011;11176;51.448;6.650;2023-02-13T15:06:21;7.80;;;5.15;;
22024;SDS011;11176;51.448;6.650;2023-02-13T15:08:49;9.07;;;4.78;;
22024;SDS011;11176;51.448;6.650;2023-02-13T15:11:30;8.68;;;4.70;;
22024;SDS011;11176;51.448;6.650;2023-02-13T15:14:19;9.30;;;5.20;;
22024;SDS011;11176;51.448;6.650;2023-02-13T15:16:52;8.70;;;4.75;;
22024;SDS011;11176;51.448;6.650;2023-02-13T15:19:22;9.50;;;4.47;;
22024;SDS011;11176;51.448;6.650;2023-02-13T15:21:51;9.75;;;5.00;;
22024;SDS011;11176;51.448;6.650;2023-02-13T15:24:31;8.25;;;4.68;;
22024;SDS011;11176;51.448;6.650;2023-02-13T15:27:04;8.57;;;5.07;;
22024;SDS011;11176;51.448;6.650;2023-02-13T15:29:32;9.20;;;5.00;;
22024;SDS011;11176;51.448;6.650;2023-02-13T15:32:24;8.65;;;5.57;;
22024;SDS011;11176;51.448;6.650;2023-02-13T15:34:53;9.70;;;5.03;;
22024;SDS011;11176;51.448;6.650;2023-02-13T15:37:24;9.98;;;4.63;;
22024;SDS011;11176;51.448;6.650;2023-02-13T15:39:53;10.23;;;5.45;;
22024;SDS011;11176;51.448;6.650;2023-02-13T15:42:20;9.88;;;4.97;;
22024;SDS011;11176;51.448;6.650;2023-02-13T15:44:49;9.82;;;5.65;;
22024;SDS011;11176;51.448;6.650;2023-02-13T15:47:24;8.38;;;5.32;;
22024;SDS011;11176;51.448;6.650;2023-02-13T15:49:53;9.27;;;5.38;;
22024;SDS011;11176;51.448;6.650;2023-02-13T15:52:22;9.55;;;5.72;;
22024;SDS011;11176;51.448;6.650;2023-02-13T15:54:51;9.15;;;4.70;;
22024;SDS011;11176;51.448;6.650;2023-02-13T15:57:19;10.40;;;5.30;;
22024;SDS011;11176;51.448;6.650;2023-02-13T15:59:48;9.20;;;5.20;;
22024;SDS011;11176;51.448;6.650;2023-02-13T16:02:23;10.30;;;5.32;;
22024;SDS011;11176;51.448;6.650;2023-02-13T16:04:55;10.10;;;5.40;;
22024;SDS011;11176;51.448;6.650;2023-02-13T16:07:22;11.18;;;6.35;;
22024;SDS011;11176;51.448;6.650;2023-02-13T16:09:49;12.02;;;6.05;;
22024;SDS011;11176;51.448;6.650;2023-02-13T16:12:22;13.30;;;6.00;;
22024;SDS011;11176;51.448;6.650;2023-02-13T16:14:54;12.18;;;6.22;;
22024;SDS011;11176;51.448;6.650;2023-02-13T16:17:26;10.55;;;5.63;;
22024;SDS011;11176;51.448;6.650;2023-02-13T16:22:33;10.63;;;6.10;;
22024;SDS011;11176;51.448;6.650;2023-02-13T16:27:43;9.63;;;5.38;;
22024;SDS011;11176;51.448;6.650;2023-02-13T16:30:21;11.43;;;5.82;;
22024;SDS011;11176;51.448;6.650;2023-02-13T16:32:48;10.90;;;5.47;;
22024;SDS011;11176;51.448;6.650;2023-02-13T16:35:25;11.55;;;5.68;;
22024;SDS011;11176;51.448;6.650;2023-02-13T16:37:55;14.48;;;7.30;;
22024;SDS011;11176;51.448;6.650;2023-02-13T16:48:38;18.98;;;10.75;;
22024;SDS011;11176;51.448;6.650;2023-02-13T16:51:05;22.15;;;11.55;;
22024;SDS011;11176;51.448;6.650;2023-02-13T16:53:31;18.35;;;11.25;;
22024;SDS011;11176;51.448;6.650;2023-02-13T16:56:04;21.65;;;11.98;;
22024;SDS011;11176;51.448;6.650;2023-02-13T16:58:32;21.13;;;12.00;;
22024;SDS011;11176;51.448;6.650;2023-02-13T17:00:59;21.70;;;11.15;;
22024;SDS011;11176;51.448;6.650;2023-02-13T17:03:28;18.65;;;11.52;;
22024;SDS011;11176;51.448;6.650;2023-02-13T17:06:00;20.08;;;11.57;;
22024;SDS011;11176;51.448;6.650;2023-02-13T17:08:29;20.05;;;11.43;;
22024;SDS011;11176;51.448;6.650;2023-02-13T17:11:06;19.58;;;11.48;;
22024;SDS011;11176;51.448;6.650;2023-02-13T17:13:33;19.17;;;10.15;;
22024;SDS011;11176;51.448;6.650;2023-02-13T17:16:00;20.45;;;10.57;;
22024;SDS011;11176;51.448;6.650;2023-02-13T17:18:26;18.23;;;10.18;;
22024;SDS011;11176;51.448;6.650;2023-02-13T17:20:53;19.35;;;10.10;;
22024;SDS011;11176;51.448;6.650;2023-02-13T17:23:20;19.23;;;9.88;;
22024;SDS011;11176;51.448;6.650;2023-02-13T17:25:50;15.82;;;9.35;;